createdAt,value
2018-03-21T00:00:39.511Z,4.40
2018-03-21T00:01:39.544Z,4.40
2018-03-21T00:02:39.565Z,4.30
2018-03-21T00:03:39.581Z,4.10
2018-03-21T00:04:39.606Z,4.20
2018-03-21T00:05:39.619Z,4.50
2018-03-21T00:06:39.652Z,4.50
2018-03-21T00:07:39.676Z,4.30
2018-03-21T00:08:39.696Z,4.00
2018-03-21T00:09:39.766Z,4.10
2018-03-21T00:10:39.730Z,4.50
2018-03-21T00:11:39.750Z,4.20
2018-03-21T00:12:39.769Z,4.40
2018-03-21T00:13:39.791Z,4.30
2018-03-21T00:14:39.813Z,4.30
2018-03-21T00:15:39.845Z,4.10
2018-03-21T00:16:39.885Z,4.30
2018-03-21T00:17:39.887Z,4.50
2018-03-21T00:18:39.927Z,4.30
2018-03-21T00:19:39.963Z,4.30
2018-03-21T00:20:39.945Z,4.20
2018-03-21T00:21:40.062Z,4.50
2018-03-21T00:22:39.987Z,4.60
2018-03-21T00:23:40.011Z,4.50
2018-03-21T00:24:40.039Z,4.20
2018-03-21T00:25:40.062Z,4.50
2018-03-21T00:26:40.075Z,4.30
2018-03-21T00:27:40.106Z,4.40
2018-03-21T00:28:40.125Z,4.40
2018-03-21T00:29:40.148Z,4.40
2018-03-21T00:30:40.162Z,4.30
2018-03-21T00:31:40.179Z,4.10
2018-03-21T00:32:40.205Z,4.10
2018-03-21T00:33:40.276Z,4.40
2018-03-21T00:34:40.255Z,4.20
2018-03-21T00:35:40.270Z,4.60
2018-03-21T00:36:40.290Z,4.30
2018-03-21T00:37:40.329Z,4.10
2018-03-21T00:38:40.344Z,4.20
2018-03-21T00:39:40.408Z,4.00
2018-03-21T00:40:40.374Z,4.30
2018-03-21T00:41:40.404Z,4.50
2018-03-21T00:42:40.419Z,3.90
2018-03-21T00:43:40.449Z,4.20
2018-03-21T00:44:40.460Z,4.10
2018-03-21T00:45:40.531Z,4.20
2018-03-21T00:46:40.514Z,4.30
2018-03-21T00:47:40.536Z,4.70
2018-03-21T00:48:40.551Z,4.30
2018-03-21T00:49:40.566Z,4.20
2018-03-21T00:50:40.602Z,4.20
2018-03-21T00:51:40.663Z,4.30
2018-03-21T00:52:40.635Z,4.40
2018-03-21T00:53:40.653Z,4.30
2018-03-21T00:54:40.694Z,4.30
2018-03-21T00:55:40.695Z,4.60
2018-03-21T00:56:40.716Z,4.30
2018-03-21T00:57:40.793Z,4.30
2018-03-21T00:58:40.768Z,4.00
2018-03-21T00:59:40.782Z,4.20
2018-03-21T01:00:40.804Z,4.30
2018-03-21T01:01:40.825Z,4.50
2018-03-21T01:02:40.907Z,4.40
2018-03-21T01:03:40.873Z,4.30
2018-03-21T01:04:40.887Z,4.10
2018-03-21T01:05:40.910Z,4.30
2018-03-21T01:06:40.930Z,4.10
2018-03-21T01:07:40.957Z,4.20
2018-03-21T01:08:41.025Z,4.40
2018-03-21T01:09:40.993Z,4.10
2018-03-21T01:10:41.028Z,4.20
2018-03-21T01:11:41.038Z,4.30
2018-03-21T01:12:41.060Z,4.20
2018-03-21T01:13:41.081Z,4.10
2018-03-21T01:14:41.164Z,4.00
2018-03-21T01:15:41.123Z,4.20
2018-03-21T01:16:41.144Z,4.00
2018-03-21T01:17:41.165Z,4.20
2018-03-21T01:18:41.192Z,4.30
2018-03-21T01:19:41.214Z,4.20
2018-03-21T01:20:41.290Z,4.60
2018-03-21T01:21:41.263Z,4.00
2018-03-21T01:22:41.281Z,4.10
2018-03-21T01:23:41.297Z,4.00
2018-03-21T01:24:41.325Z,4.40
2018-03-21T01:25:41.337Z,4.20
2018-03-21T01:26:41.409Z,4.30
2018-03-21T01:27:41.387Z,4.30
2018-03-21T01:28:41.403Z,4.10
2018-03-21T01:29:41.422Z,4.40
2018-03-21T01:30:41.444Z,4.10
2018-03-21T01:31:41.465Z,4.30
2018-03-21T01:32:41.547Z,4.20
2018-03-21T01:33:41.507Z,4.10
2018-03-21T01:34:41.529Z,4.40
2018-03-21T01:35:41.552Z,4.20
2018-03-21T01:36:41.578Z,4.20
2018-03-21T01:37:41.591Z,4.40
2018-03-21T01:38:41.666Z,4.20
2018-03-21T01:39:41.642Z,4.20
2018-03-21T01:40:41.657Z,4.30
2018-03-21T01:41:41.686Z,4.30
2018-03-21T01:42:41.697Z,4.50
2018-03-21T01:43:41.718Z,4.30
2018-03-21T01:44:41.795Z,4.00
2018-03-21T01:45:41.762Z,4.20
2018-03-21T01:46:41.788Z,4.00
2018-03-21T01:47:41.807Z,4.50
2018-03-21T01:48:41.834Z,4.60
2018-03-21T01:49:41.898Z,4.60
2018-03-21T01:50:41.870Z,4.60
2018-03-21T01:51:41.897Z,4.20
2018-03-21T01:52:41.910Z,4.20
2018-03-21T01:53:41.938Z,4.20
2018-03-21T01:54:41.954Z,4.50
2018-03-21T01:55:42.025Z,4.10
2018-03-21T01:56:41.994Z,4.30
2018-03-21T01:57:42.016Z,4.30
2018-03-21T01:58:42.040Z,4.10
2018-03-21T01:59:42.068Z,4.30
2018-03-21T02:00:42.082Z,4.30
2018-03-21T02:01:42.162Z,4.40
2018-03-21T02:02:42.122Z,4.20
2018-03-21T02:03:42.142Z,4.40
2018-03-21T02:04:42.165Z,4.30
2018-03-21T02:05:42.188Z,4.30
2018-03-21T02:06:42.206Z,4.40
2018-03-21T02:07:42.280Z,4.40
2018-03-21T02:08:42.252Z,4.20
2018-03-21T02:09:42.270Z,4.30
2018-03-21T02:10:42.293Z,4.30
2018-03-21T02:11:42.314Z,4.20
2018-03-21T02:12:42.335Z,4.40
2018-03-21T02:13:42.407Z,4.50
2018-03-21T02:14:42.377Z,4.30
2018-03-21T02:15:42.404Z,4.50
2018-03-21T02:16:42.424Z,4.40
2018-03-21T02:17:42.439Z,4.10
2018-03-21T02:18:42.463Z,4.20
2018-03-21T02:19:42.544Z,4.30
2018-03-21T02:20:42.504Z,4.40
2018-03-21T02:21:42.527Z,4.30
2018-03-21T02:22:42.546Z,4.40
2018-03-21T02:23:42.568Z,4.10
2018-03-21T02:24:42.599Z,4.40
2018-03-21T02:25:42.661Z,4.50
2018-03-21T02:26:42.629Z,4.30
2018-03-21T02:27:42.650Z,4.20
2018-03-21T02:28:42.684Z,4.10
2018-03-21T02:29:42.693Z,4.50
2018-03-21T02:30:42.717Z,4.50
2018-03-21T02:31:42.800Z,4.60
2018-03-21T02:32:42.756Z,4.30
2018-03-21T02:33:42.779Z,4.10
2018-03-21T02:34:42.799Z,4.20
2018-03-21T02:35:42.821Z,4.60
2018-03-21T02:36:42.842Z,4.40
2018-03-21T02:37:42.921Z,4.10
2018-03-21T02:38:42.894Z,4.20
2018-03-21T02:39:42.902Z,4.00
2018-03-21T02:40:42.937Z,4.30
2018-03-21T02:41:42.943Z,4.30
2018-03-21T02:42:42.969Z,4.40
2018-03-21T02:43:43.041Z,4.40
2018-03-21T02:44:43.012Z,4.30
2018-03-21T02:45:43.037Z,4.30
2018-03-21T02:46:43.059Z,4.30
2018-03-21T02:47:43.082Z,4.60
2018-03-21T02:48:43.104Z,4.30
2018-03-21T02:49:43.177Z,4.10
2018-03-21T02:50:43.136Z,4.40
2018-03-21T02:51:43.157Z,4.20
2018-03-21T02:52:43.178Z,4.30
2018-03-21T02:53:43.202Z,4.40
2018-03-21T02:54:43.221Z,4.40
2018-03-21T02:55:43.299Z,4.40
2018-03-21T02:56:43.264Z,4.40
2018-03-21T02:57:43.285Z,4.30
2018-03-21T02:58:43.302Z,4.10
2018-03-21T02:59:43.328Z,4.00
2018-03-21T03:00:43.358Z,4.20
2018-03-21T03:01:43.420Z,4.20
2018-03-21T03:02:43.388Z,4.20
2018-03-21T03:03:43.407Z,4.20
2018-03-21T03:04:43.431Z,4.30
2018-03-21T03:05:43.452Z,4.20
2018-03-21T03:06:43.473Z,4.50
2018-03-21T03:07:43.547Z,4.30
2018-03-21T03:08:43.528Z,4.30
2018-03-21T03:09:43.532Z,4.10
2018-03-21T03:10:43.565Z,4.50
2018-03-21T03:11:43.579Z,4.50
2018-03-21T03:12:43.606Z,4.20
2018-03-21T03:13:43.671Z,4.30
2018-03-21T03:14:43.642Z,4.60
2018-03-21T03:15:43.661Z,4.30
2018-03-21T03:16:43.681Z,4.20
2018-03-21T03:17:43.701Z,4.30
2018-03-21T03:18:43.724Z,4.30
2018-03-21T03:19:43.796Z,4.50
2018-03-21T03:20:43.765Z,4.40
2018-03-21T03:21:43.795Z,4.20
2018-03-21T03:22:43.809Z,4.50
2018-03-21T03:23:43.828Z,4.30
2018-03-21T03:24:43.849Z,4.40
2018-03-21T03:25:43.929Z,4.40
2018-03-21T03:26:43.889Z,4.60
2018-03-21T03:27:43.919Z,4.80
2018-03-21T03:28:43.941Z,4.30
2018-03-21T03:29:43.952Z,4.30
2018-03-21T03:30:43.973Z,4.30
2018-03-21T03:31:44.057Z,4.50
2018-03-21T03:32:44.015Z,4.40
2018-03-21T03:33:44.044Z,4.10
2018-03-21T03:34:44.066Z,4.60
2018-03-21T03:35:44.086Z,4.60
2018-03-21T03:36:44.160Z,4.20
2018-03-21T03:37:44.123Z,4.20
2018-03-21T03:38:44.141Z,4.40
2018-03-21T03:39:44.177Z,4.40
2018-03-21T03:40:44.186Z,4.40
2018-03-21T03:41:44.206Z,4.30
2018-03-21T03:42:44.277Z,4.30
2018-03-21T03:43:44.246Z,4.40
2018-03-21T03:44:44.279Z,4.50
2018-03-21T03:45:44.289Z,4.40
2018-03-21T03:46:44.308Z,4.50
2018-03-21T03:47:44.331Z,4.50
2018-03-21T03:48:44.403Z,4.60
2018-03-21T03:49:44.369Z,4.40
2018-03-21T03:50:44.395Z,4.70
2018-03-21T03:51:44.424Z,4.60
2018-03-21T03:52:44.434Z,4.20
2018-03-21T03:53:44.455Z,4.80
2018-03-21T03:54:44.527Z,4.40
2018-03-21T03:55:44.500Z,4.10
2018-03-21T03:56:44.527Z,4.40
2018-03-21T03:57:44.538Z,4.10
2018-03-21T03:58:44.570Z,4.80
2018-03-21T03:59:44.579Z,4.90
2018-03-21T04:01:51.882Z,4.10
2018-03-21T04:02:44.654Z,4.50
2018-03-21T04:03:44.761Z,4.30
2018-03-21T04:04:44.687Z,4.80
2018-03-21T04:05:44.715Z,4.10
2018-03-21T04:06:44.728Z,4.60
2018-03-21T04:07:44.847Z,4.40
2018-03-21T04:08:44.781Z,4.60
2018-03-21T04:09:44.795Z,4.40
2018-03-21T04:10:44.808Z,4.50
2018-03-21T04:11:44.833Z,4.50
2018-03-21T04:12:44.853Z,4.60
2018-03-21T04:13:44.925Z,4.40
2018-03-21T04:14:44.893Z,4.60
2018-03-21T04:15:44.924Z,4.50
2018-03-21T04:16:44.950Z,4.50
2018-03-21T04:17:44.953Z,4.50
2018-03-21T04:18:44.977Z,4.50
2018-03-21T04:19:44.996Z,4.40
2018-03-21T04:20:45.016Z,4.70
2018-03-21T04:21:45.041Z,4.40
2018-03-21T04:22:45.059Z,4.30
2018-03-21T04:23:45.080Z,4.40
2018-03-21T04:24:45.103Z,4.70
2018-03-21T04:25:45.121Z,4.40
2018-03-21T04:26:45.141Z,4.30
2018-03-21T04:27:45.181Z,4.70
2018-03-21T04:28:45.183Z,4.30
2018-03-21T04:29:45.205Z,4.60
2018-03-21T04:30:45.285Z,4.30
2018-03-21T04:31:45.245Z,4.20
2018-03-21T04:32:45.278Z,4.70
2018-03-21T04:33:45.295Z,4.60
2018-03-21T04:34:45.306Z,4.50
2018-03-21T04:35:45.328Z,4.50
2018-03-21T04:36:45.352Z,4.50
2018-03-21T04:37:45.372Z,4.30
2018-03-21T04:38:45.403Z,4.50
2018-03-21T04:39:45.413Z,4.50
2018-03-21T04:40:45.433Z,4.40
2018-03-21T04:41:45.453Z,4.20
2018-03-21T04:42:45.478Z,4.60
2018-03-21T04:43:45.495Z,4.20
2018-03-21T04:44:45.526Z,4.40
2018-03-21T04:45:45.536Z,4.60
2018-03-21T04:46:45.561Z,4.50
2018-03-21T04:47:45.580Z,4.80
2018-03-21T04:48:45.610Z,4.70
2018-03-21T04:49:45.620Z,4.40
2018-03-21T04:50:45.693Z,5.10
2018-03-21T04:51:45.662Z,4.90
2018-03-21T04:52:45.693Z,4.40
2018-03-21T04:53:45.702Z,4.30
2018-03-21T04:54:45.736Z,4.50
2018-03-21T04:55:45.747Z,4.50
2018-03-21T04:56:45.767Z,4.60
2018-03-21T04:57:45.794Z,4.50
2018-03-21T04:58:45.805Z,4.60
2018-03-21T04:59:45.837Z,4.60
2018-03-21T05:00:45.850Z,4.70
2018-03-21T05:01:45.878Z,4.30
2018-03-21T05:02:45.890Z,4.50
2018-03-21T05:03:45.909Z,4.40
2018-03-21T05:04:45.932Z,4.70
2018-03-21T05:05:45.952Z,4.40
2018-03-21T05:06:45.984Z,4.50
2018-03-21T05:07:45.994Z,4.80
2018-03-21T05:08:46.024Z,4.60
2018-03-21T05:09:46.035Z,4.30
2018-03-21T05:10:46.056Z,4.70
2018-03-21T05:11:46.078Z,4.40
2018-03-21T05:12:46.107Z,4.80
2018-03-21T05:13:46.116Z,4.50
2018-03-21T05:14:46.137Z,4.20
2018-03-21T05:15:46.157Z,4.70
2018-03-21T05:16:46.185Z,4.50
2018-03-21T05:17:46.198Z,4.50
2018-03-21T05:18:46.221Z,4.60
2018-03-21T05:19:46.247Z,4.10
2018-03-21T05:20:46.263Z,4.30
2018-03-21T05:21:46.293Z,4.70
2018-03-21T05:22:46.303Z,4.50
2018-03-21T05:23:46.334Z,4.60
2018-03-21T05:24:46.345Z,4.10
2018-03-21T05:25:46.365Z,4.30
2018-03-21T05:26:46.387Z,4.40
2018-03-21T05:27:46.404Z,4.50
2018-03-21T05:28:46.435Z,4.30
2018-03-21T05:29:46.456Z,4.40
2018-03-21T05:30:46.470Z,4.60
2018-03-21T05:31:46.496Z,4.20
2018-03-21T05:32:46.510Z,4.70
2018-03-21T05:33:46.531Z,4.70
2018-03-21T05:34:46.561Z,4.60
2018-03-21T05:35:46.570Z,4.40
2018-03-21T05:36:46.600Z,4.80
2018-03-21T05:37:46.615Z,4.40
2018-03-21T05:38:46.632Z,4.60
2018-03-21T05:39:46.652Z,4.50
2018-03-21T05:40:46.680Z,4.30
2018-03-21T05:41:46.694Z,4.50
2018-03-21T05:42:46.715Z,4.50
2018-03-21T05:43:46.747Z,4.50
2018-03-21T05:44:46.756Z,4.70
2018-03-21T05:45:46.776Z,4.90
2018-03-21T05:46:46.800Z,4.60
2018-03-21T05:47:46.817Z,4.80
2018-03-21T05:48:46.838Z,4.80
2018-03-21T05:49:46.858Z,4.90
2018-03-21T05:50:46.890Z,4.60
2018-03-21T05:51:46.902Z,4.60
2018-03-21T05:52:46.928Z,4.40
2018-03-21T05:53:46.948Z,4.50
2018-03-21T05:54:46.980Z,4.40
2018-03-21T05:55:46.993Z,4.70
2018-03-21T05:56:47.046Z,4.80
2018-03-21T05:57:47.032Z,4.50
2018-03-21T05:58:47.046Z,4.20
2018-03-21T05:59:47.078Z,5.00
2018-03-21T06:00:47.093Z,4.70
2018-03-21T06:01:47.104Z,4.50
2018-03-21T06:02:47.125Z,4.60
2018-03-21T06:03:47.155Z,4.70
2018-03-21T06:04:47.166Z,4.50
2018-03-21T06:05:47.188Z,4.70
2018-03-21T06:06:47.211Z,4.50
2018-03-21T06:07:47.227Z,5.00
2018-03-21T06:08:47.249Z,4.80
2018-03-21T06:09:47.318Z,4.40
2018-03-21T06:10:47.292Z,4.30
2018-03-21T06:11:47.310Z,5.00
2018-03-21T06:12:47.344Z,4.80
2018-03-21T06:13:47.351Z,4.50
2018-03-21T06:14:47.425Z,4.70
2018-03-21T06:15:47.396Z,4.70
2018-03-21T06:16:47.416Z,5.30
2018-03-21T06:17:47.433Z,5.20
2018-03-21T06:18:47.455Z,5.70
2018-03-21T06:19:47.483Z,5.60
2018-03-21T06:20:47.496Z,5.00
2018-03-21T06:21:47.542Z,5.10
2018-03-21T06:22:47.544Z,4.90
2018-03-21T06:23:47.560Z,5.10
2018-03-21T06:24:47.583Z,4.90
2018-03-21T06:25:47.597Z,5.10
2018-03-21T06:26:47.621Z,4.80
2018-03-21T06:27:47.640Z,5.40
2018-03-21T06:28:47.669Z,5.00
2018-03-21T06:29:47.688Z,5.50
2018-03-21T06:30:47.705Z,5.30
2018-03-21T06:31:47.720Z,5.50
2018-03-21T06:32:47.744Z,5.10
2018-03-21T06:33:47.764Z,5.10
2018-03-21T06:34:47.792Z,5.40
2018-03-21T06:35:47.806Z,5.50
2018-03-21T06:36:47.833Z,5.30
2018-03-21T06:37:47.857Z,5.70
2018-03-21T06:38:47.867Z,5.40
2018-03-21T06:39:47.887Z,5.20
2018-03-21T06:40:47.910Z,5.60
2018-03-21T06:41:47.942Z,5.30
2018-03-21T06:42:47.955Z,5.30
2018-03-21T06:43:47.979Z,5.20
2018-03-21T06:44:47.999Z,5.20
2018-03-21T06:45:48.012Z,5.50
2018-03-21T06:46:48.031Z,5.30
2018-03-21T06:47:48.060Z,4.80
2018-03-21T06:48:48.082Z,5.20
2018-03-21T06:49:48.104Z,5.40
2018-03-21T06:50:48.114Z,5.00
2018-03-21T06:51:48.134Z,4.90
2018-03-21T06:52:48.158Z,5.50
2018-03-21T06:53:48.176Z,5.00
2018-03-21T06:54:48.195Z,5.30
2018-03-21T06:55:48.214Z,4.80
2018-03-21T06:56:48.238Z,4.90
2018-03-21T06:57:48.260Z,4.90
2018-03-21T06:58:48.284Z,5.00
2018-03-21T06:59:48.309Z,5.40
2018-03-21T07:00:48.321Z,4.90
2018-03-21T07:01:48.350Z,5.00
2018-03-21T07:02:48.363Z,5.20
2018-03-21T07:03:48.382Z,5.20
2018-03-21T07:04:48.411Z,5.20
2018-03-21T07:05:48.423Z,5.10
2018-03-21T07:06:48.445Z,5.20
2018-03-21T07:07:48.465Z,5.30
2018-03-21T07:08:48.493Z,5.00
2018-03-21T07:09:48.557Z,5.10
2018-03-21T07:10:48.525Z,5.10
2018-03-21T07:11:48.546Z,5.00
2018-03-21T07:12:48.567Z,5.20
2018-03-21T07:13:48.585Z,4.90
2018-03-21T07:14:48.618Z,4.90
2018-03-21T07:15:48.653Z,5.10
2018-03-21T07:16:48.646Z,5.20
2018-03-21T07:17:48.669Z,5.50
2018-03-21T07:18:48.689Z,4.90
2018-03-21T07:19:48.711Z,5.00
2018-03-21T07:20:48.731Z,5.10
2018-03-21T07:21:48.752Z,5.00
2018-03-21T07:22:48.786Z,5.20
2018-03-21T07:23:48.793Z,5.10
2018-03-21T07:24:48.814Z,5.10
2018-03-21T07:25:48.841Z,5.20
2018-03-21T07:26:48.854Z,5.10
2018-03-21T07:27:48.883Z,5.30
2018-03-21T07:28:48.897Z,5.40
2018-03-21T07:29:48.927Z,5.40
2018-03-21T07:30:48.938Z,5.10
2018-03-21T07:31:48.974Z,5.40
2018-03-21T07:32:48.974Z,5.00
2018-03-21T07:33:48.996Z,5.10
2018-03-21T07:34:49.020Z,5.30
2018-03-21T07:35:49.039Z,5.20
2018-03-21T07:36:49.058Z,5.00
2018-03-21T07:37:49.078Z,5.30
2018-03-21T07:38:49.102Z,5.10
2018-03-21T07:39:49.122Z,4.90
2018-03-21T07:40:49.145Z,5.00
2018-03-21T07:41:49.170Z,5.30
2018-03-21T07:42:49.182Z,5.20
2018-03-21T07:43:49.205Z,5.40
2018-03-21T07:44:49.221Z,5.10
2018-03-21T07:45:49.243Z,5.00
2018-03-21T07:46:49.263Z,5.00
2018-03-21T07:47:49.293Z,4.90
2018-03-21T07:48:49.302Z,5.10
2018-03-21T07:49:49.322Z,5.10
2018-03-21T07:50:49.347Z,4.80
2018-03-21T07:51:49.364Z,5.10
2018-03-21T07:52:49.387Z,5.30
2018-03-21T07:53:49.406Z,4.90
2018-03-21T07:54:49.426Z,4.80
2018-03-21T07:55:49.448Z,4.90
2018-03-21T07:56:49.469Z,5.00
2018-03-21T07:57:49.486Z,5.20
2018-03-21T07:58:49.508Z,5.10
2018-03-21T07:59:49.529Z,4.70
2018-03-21T08:00:49.555Z,5.00
2018-03-21T08:01:49.569Z,4.80
2018-03-21T08:02:49.598Z,4.90
2018-03-21T08:03:49.614Z,4.60
2018-03-21T08:04:49.629Z,4.90
2018-03-21T08:05:49.650Z,4.90
2018-03-21T08:06:49.684Z,4.90
2018-03-21T08:07:49.702Z,5.10
2018-03-21T08:08:49.712Z,4.70
2018-03-21T08:09:49.734Z,5.10
2018-03-21T08:10:49.763Z,4.70
2018-03-21T08:11:49.776Z,4.40
2018-03-21T08:12:49.794Z,4.60
2018-03-21T08:13:49.816Z,4.90
2018-03-21T08:14:49.836Z,5.30
2018-03-21T08:15:49.866Z,4.70
2018-03-21T08:16:49.876Z,4.90
2018-03-21T08:17:49.904Z,4.80
2018-03-21T08:18:49.916Z,4.50
2018-03-21T08:19:49.937Z,4.90
2018-03-21T08:20:49.956Z,4.80
2018-03-21T08:21:49.978Z,4.70
2018-03-21T08:22:49.997Z,4.50
2018-03-21T08:23:50.021Z,4.30
2018-03-21T08:24:50.038Z,4.60
2018-03-21T08:25:50.060Z,4.70
2018-03-21T08:26:50.082Z,5.10
2018-03-21T08:27:50.099Z,4.60
2018-03-21T08:28:50.120Z,4.80
2018-03-21T08:29:50.141Z,4.80
2018-03-21T08:30:50.162Z,4.60
2018-03-21T08:31:50.183Z,4.50
2018-03-21T08:32:50.204Z,4.50
2018-03-21T08:33:50.230Z,4.50
2018-03-21T08:34:50.251Z,4.50
2018-03-21T08:35:50.261Z,4.40
2018-03-21T08:36:50.285Z,4.60
2018-03-21T08:37:50.303Z,4.40
2018-03-21T08:38:50.322Z,4.30
2018-03-21T08:39:50.359Z,4.40
2018-03-21T08:40:50.372Z,4.20
2018-03-21T08:41:50.382Z,4.40
2018-03-21T08:42:50.406Z,4.40
2018-03-21T08:43:50.427Z,4.70
2018-03-21T08:44:50.446Z,3.90
2018-03-21T08:45:50.464Z,4.10
2018-03-21T08:46:50.488Z,4.30
2018-03-21T08:47:50.507Z,4.10
2018-03-21T08:48:50.530Z,4.20
2018-03-21T08:49:50.548Z,4.10
2018-03-21T08:50:50.570Z,4.20
2018-03-21T08:51:50.598Z,4.20
2018-03-21T08:52:50.615Z,3.90
2018-03-21T08:53:50.630Z,3.90
2018-03-21T08:54:50.648Z,3.90
2018-03-21T08:55:50.672Z,4.00
2018-03-21T08:56:50.702Z,4.00
2018-03-21T08:57:50.712Z,3.60
2018-03-21T08:58:50.732Z,3.50
2018-03-21T08:59:50.753Z,3.80
2018-03-21T09:00:50.788Z,3.70
2018-03-21T09:01:50.807Z,3.50
2018-03-21T09:02:50.814Z,3.60
2018-03-21T09:03:50.835Z,3.70
2018-03-21T09:04:50.854Z,3.40
2018-03-21T09:05:50.882Z,3.40
2018-03-21T09:06:50.898Z,3.40
2018-03-21T09:07:50.916Z,3.10
2018-03-21T09:08:50.939Z,3.40
2018-03-21T09:09:50.956Z,3.10
2018-03-21T09:10:50.977Z,3.10
2018-03-21T09:11:50.998Z,3.10
2018-03-21T09:12:51.030Z,3.00
2018-03-21T09:13:51.044Z,3.00
2018-03-21T09:14:51.060Z,3.30
2018-03-21T09:15:51.096Z,3.20
2018-03-21T09:16:51.101Z,2.90
2018-03-21T09:17:51.130Z,3.40
2018-03-21T09:18:51.142Z,3.10
2018-03-21T09:19:51.163Z,3.20
2018-03-21T09:20:51.187Z,3.00
2018-03-21T09:21:51.213Z,3.00
2018-03-21T09:22:51.284Z,3.00
2018-03-21T09:23:51.246Z,3.00
2018-03-21T09:24:51.266Z,3.00
2018-03-21T09:25:51.288Z,3.00
2018-03-21T09:26:51.305Z,2.90
2018-03-21T09:27:51.331Z,3.00
2018-03-21T09:28:51.353Z,3.20
2018-03-21T09:29:51.378Z,2.90
2018-03-21T09:30:51.393Z,3.00
2018-03-21T09:31:51.413Z,3.00
2018-03-21T09:32:51.430Z,2.90
2018-03-21T09:33:51.464Z,2.80
2018-03-21T09:34:51.484Z,3.00
2018-03-21T09:35:51.493Z,2.80
2018-03-21T09:36:51.518Z,3.10
2018-03-21T09:37:51.534Z,2.80
2018-03-21T09:38:51.557Z,2.90
2018-03-21T09:39:51.586Z,2.80
2018-03-21T09:40:51.653Z,3.10
2018-03-21T09:41:51.618Z,2.90
2018-03-21T09:42:51.640Z,2.60
2018-03-21T09:43:51.660Z,2.80
2018-03-21T09:44:51.681Z,2.70
2018-03-21T09:45:51.705Z,2.90
2018-03-21T09:46:51.775Z,2.80
2018-03-21T09:47:51.755Z,2.70
2018-03-21T09:48:51.782Z,2.50
2018-03-21T09:49:51.794Z,2.90
2018-03-21T09:50:51.810Z,2.70
2018-03-21T09:51:51.829Z,3.00
2018-03-21T09:52:51.910Z,2.70
2018-03-21T09:53:51.874Z,2.70
2018-03-21T09:54:51.900Z,2.90
2018-03-21T09:56:51.935Z,2.60
2018-03-21T09:57:51.952Z,2.80
2018-03-21T09:58:51.987Z,2.60
2018-03-21T09:59:52.011Z,2.80
2018-03-21T10:00:52.029Z,2.80
2018-03-21T10:01:52.039Z,2.40
2018-03-21T10:02:52.069Z,2.60
2018-03-21T10:03:52.084Z,2.70
2018-03-21T10:04:52.104Z,2.70
2018-03-21T10:05:52.125Z,2.40
2018-03-21T10:06:52.145Z,2.60
2018-03-21T10:07:52.171Z,2.90
2018-03-21T10:08:52.188Z,2.70
2018-03-21T10:09:52.208Z,2.60
2018-03-21T10:10:52.281Z,2.40
2018-03-21T10:11:52.257Z,2.60
2018-03-21T10:12:52.283Z,2.60
2018-03-21T10:13:52.308Z,2.70
2018-03-21T10:14:52.317Z,2.40
2018-03-21T10:15:52.370Z,2.70
2018-03-21T10:16:52.369Z,2.50
2018-03-21T10:17:52.396Z,2.40
2018-03-21T10:18:52.399Z,2.60
2018-03-21T10:19:52.421Z,2.50
2018-03-21T10:20:52.451Z,2.40
2018-03-21T10:21:52.467Z,2.30
2018-03-21T10:22:52.545Z,2.60
2018-03-21T10:23:52.507Z,2.60
2018-03-21T10:24:52.540Z,2.50
2018-03-21T10:25:52.561Z,2.40
2018-03-21T10:26:52.572Z,2.50
2018-03-21T10:27:52.598Z,2.30
2018-03-21T10:28:52.689Z,2.60
2018-03-21T10:29:52.639Z,2.50
2018-03-21T10:30:52.658Z,2.30
2018-03-21T10:31:52.686Z,2.40
2018-03-21T10:32:52.711Z,2.20
2018-03-21T10:33:52.735Z,2.30
2018-03-21T10:34:52.751Z,2.10
2018-03-21T10:35:52.768Z,2.40
2018-03-21T10:36:52.801Z,2.30
2018-03-21T10:37:52.816Z,2.20
2018-03-21T10:38:52.835Z,2.40
2018-03-21T10:39:52.861Z,2.40
2018-03-21T10:40:52.892Z,2.10
2018-03-21T10:41:52.902Z,2.20
2018-03-21T10:42:52.931Z,2.10
2018-03-21T10:43:52.945Z,2.30
2018-03-21T10:44:53.024Z,2.20
2018-03-21T10:45:52.990Z,2.00
2018-03-21T10:46:53.074Z,2.10
2018-03-21T10:47:53.045Z,2.20
2018-03-21T10:48:53.109Z,2.30
2018-03-21T10:49:53.081Z,2.00
2018-03-21T10:50:53.111Z,2.10
2018-03-21T10:51:53.126Z,2.30
2018-03-21T10:52:53.201Z,2.20
2018-03-21T10:53:53.169Z,2.10
2018-03-21T10:54:53.190Z,2.30
2018-03-21T10:55:53.212Z,2.20
2018-03-21T10:56:53.240Z,2.30
2018-03-21T10:57:53.258Z,2.30
2018-03-21T10:58:53.339Z,2.30
2018-03-21T10:59:53.304Z,2.20
2018-03-21T11:00:53.333Z,2.20
2018-03-21T11:01:53.348Z,2.20
2018-03-21T11:02:53.373Z,2.20
2018-03-21T11:03:53.411Z,2.10
2018-03-21T11:04:53.419Z,2.20
2018-03-21T11:05:53.449Z,2.20
2018-03-21T11:06:53.466Z,2.40
2018-03-21T11:07:53.486Z,2.40
2018-03-21T11:08:53.509Z,2.10
2018-03-21T11:09:53.532Z,2.20
2018-03-21T11:10:53.604Z,2.30
2018-03-21T11:11:53.598Z,2.20
2018-03-21T11:12:53.602Z,2.40
2018-03-21T11:13:53.629Z,2.30
2018-03-21T11:14:53.654Z,2.50
2018-03-21T11:15:53.668Z,2.50
2018-03-21T11:16:53.748Z,2.40
2018-03-21T11:17:53.721Z,2.40
2018-03-21T11:18:53.744Z,2.20
2018-03-21T11:19:53.757Z,2.50
2018-03-21T11:20:53.785Z,2.20
2018-03-21T11:21:53.804Z,2.10
2018-03-21T11:22:53.835Z,2.10
2018-03-21T11:23:53.847Z,2.30
2018-03-21T11:24:53.869Z,2.40
2018-03-21T11:25:53.893Z,2.40
2018-03-21T11:26:53.925Z,2.20
2018-03-21T11:27:53.938Z,2.30
2018-03-21T11:28:53.970Z,2.30
2018-03-21T11:29:53.985Z,2.20
2018-03-21T11:30:54.008Z,2.30
2018-03-21T11:31:54.032Z,2.40
2018-03-21T11:32:54.052Z,2.30
2018-03-21T11:33:54.087Z,2.20
2018-03-21T11:34:54.160Z,2.50
2018-03-21T11:35:54.119Z,2.30
2018-03-21T11:36:54.144Z,2.40
2018-03-21T11:37:54.178Z,2.40
2018-03-21T11:38:54.198Z,2.20
2018-03-21T11:39:54.221Z,2.30
2018-03-21T11:40:54.298Z,2.60
2018-03-21T11:41:54.272Z,2.50
2018-03-21T11:42:54.283Z,2.50
2018-03-21T11:43:54.315Z,2.40
2018-03-21T11:44:54.382Z,2.30
2018-03-21T11:45:54.352Z,2.70
2018-03-21T11:46:54.377Z,2.20
2018-03-21T11:47:54.409Z,2.40
2018-03-21T11:48:54.423Z,2.50
2018-03-21T11:49:54.449Z,2.60
2018-03-21T11:50:54.481Z,2.30
2018-03-21T11:51:54.493Z,2.10
2018-03-21T11:52:54.567Z,2.50
2018-03-21T11:53:54.548Z,2.10
2018-03-21T11:54:54.574Z,2.30
2018-03-21T11:55:54.588Z,2.20
2018-03-21T11:56:54.623Z,2.00
2018-03-21T11:57:54.636Z,2.10
2018-03-21T11:58:54.661Z,2.30
2018-03-21T11:59:54.680Z,2.00
2018-03-21T12:00:54.706Z,2.30
2018-03-21T12:01:54.729Z,2.20
2018-03-21T12:02:54.803Z,2.20
2018-03-21T12:03:54.786Z,2.20
2018-03-21T12:04:54.799Z,2.10
2018-03-21T12:05:54.838Z,2.30
2018-03-21T12:06:54.847Z,2.70
2018-03-21T12:07:54.870Z,2.50
2018-03-21T12:08:54.893Z,2.60
2018-03-21T12:09:54.920Z,2.50
2018-03-21T12:10:54.952Z,2.60
2018-03-21T12:11:54.977Z,2.20
2018-03-21T12:12:54.990Z,2.50
2018-03-21T12:13:55.013Z,2.40
2018-03-21T12:14:55.038Z,2.20
2018-03-21T12:15:55.061Z,2.40
2018-03-21T12:16:55.098Z,2.50
2018-03-21T12:17:55.120Z,2.40
2018-03-21T12:18:55.142Z,2.60
2018-03-21T12:19:55.206Z,2.70
2018-03-21T12:20:55.184Z,2.60
2018-03-21T12:21:55.202Z,2.60
2018-03-21T12:22:55.278Z,2.80
2018-03-21T12:23:55.261Z,2.30
2018-03-21T12:24:55.277Z,2.50
2018-03-21T12:25:55.301Z,2.40
2018-03-21T12:26:55.328Z,2.40
2018-03-21T12:27:55.350Z,2.40
2018-03-21T12:28:55.431Z,2.60
2018-03-21T12:29:55.396Z,2.60
2018-03-21T12:30:55.424Z,2.30
2018-03-21T12:31:55.446Z,2.50
2018-03-21T12:32:55.471Z,2.40
2018-03-21T12:33:55.502Z,2.60
2018-03-21T12:34:55.571Z,2.40
2018-03-21T12:35:55.545Z,2.40
2018-03-21T12:36:55.564Z,2.20
2018-03-21T12:37:55.592Z,2.30
2018-03-21T12:38:55.621Z,2.20
2018-03-21T12:39:55.640Z,2.70
2018-03-21T12:40:55.664Z,2.70
2018-03-21T12:41:55.693Z,2.30
2018-03-21T12:42:55.719Z,2.40
2018-03-21T12:43:55.744Z,2.30
2018-03-21T12:44:55.767Z,2.30
2018-03-21T12:45:55.786Z,2.30
2018-03-21T12:46:55.871Z,2.40
2018-03-21T12:47:55.833Z,2.30
2018-03-21T12:48:55.856Z,2.50
2018-03-21T12:49:55.901Z,2.40
2018-03-21T12:50:55.913Z,2.40
2018-03-21T12:51:55.945Z,2.30
2018-03-21T12:52:56.017Z,2.40
2018-03-21T12:53:55.989Z,2.50
2018-03-21T12:54:56.003Z,2.30
2018-03-21T12:55:56.149Z,2.50
2018-03-21T12:56:56.054Z,2.10
2018-03-21T12:57:56.077Z,2.20
2018-03-21T12:58:56.151Z,2.10
2018-03-21T12:59:56.134Z,2.50
2018-03-21T13:00:56.148Z,2.40
2018-03-21T13:01:56.172Z,2.30
2018-03-21T13:02:56.208Z,2.10
2018-03-21T13:03:56.223Z,2.30
2018-03-21T13:04:56.256Z,2.20
2018-03-21T13:05:56.273Z,2.20
2018-03-21T13:06:56.296Z,2.20
2018-03-21T13:07:56.325Z,2.40
2018-03-21T13:08:56.381Z,2.30
2018-03-21T13:09:56.379Z,2.40
2018-03-21T13:10:56.391Z,2.20
2018-03-21T13:11:56.417Z,2.20
2018-03-21T13:12:56.444Z,2.10
2018-03-21T13:13:56.471Z,2.20
2018-03-21T13:14:56.492Z,2.20
2018-03-21T13:15:56.513Z,2.10
2018-03-21T13:16:56.589Z,2.20
2018-03-21T13:17:56.561Z,2.10
2018-03-21T13:18:56.590Z,2.20
2018-03-21T13:19:56.615Z,2.30
2018-03-21T13:20:56.643Z,2.00